Willeys, Illinois
Current Conditions -  °F | °C
As of 4:35 PM on Friday 31 Oct 2014 (Local Time) from KTAZ Reporting Station
Scattered Clouds Scattered Clouds  
Wind Chill: 33°   Ceiling: Unl
Heat Index: 43°   Visibility: 10mi
Dew Point: 23°   Wind: 28mph
Humidity: 46%   Direction: 330°NNW
Pressure: 30.27"   Gusts: 35mph
Location:  39.5521°N, 89.3216°W
Report Text: KTAZ 312135Z AUTO 33024G30KT 10SM SCT060 06/M05 A3027 RMK AO2
Loading
Personal Weather Stations






























Interactive Weather Map
Tropical Storm Tracking
New forecast layout! Learn more

10-Day Weather Forecast

Advertisements
Track Severe Weather on mobile